Time;durP1;ratioP1;P1;durP2;ratioP2;P2;SDS_P1;SDS_P2;PMS_P1;PMS_P2;Temp;Humidity;BMP_temperature;BMP_pressure;BME280_temperature;BME280_humidity;BME280_pressure;Samples;Min_cycle;Max_cycle;Signal;HPM_P1;HPM_P2
2022/10/08 00:01:10;;;;;;;16.20;14.38;;;;;;;10.00;100.00;100122.34;10628398;27;20491;-69
2022/10/08 00:06:16;;;;;;;17.20;15.70;;;;;;;9.87;100.00;100118.31;10626897;27;20549;-70
2022/10/08 00:11:21;;;;;;;21.07;15.70;;;;;;;10.00;100.00;100122.34;10627181;27;20043;-70
2022/10/08 00:16:26;;;;;;;17.83;15.95;;;;;;;9.90;100.00;100120.03;10626620;27;20039;-70
2022/10/08 00:21:35;;;;;;;18.00;16.30;;;;;;;9.85;100.00;100117.53;10626097;27;20043;-69
2022/10/08 00:26:37;;;;;;;17.27;15.23;;;;;;;10.07;100.00;100107.28;10626651;27;20043;-69
2022/10/08 00:31:47;;;;;;;16.50;13.70;;;;;;;9.99;100.00;100106.63;10626102;27;20043;-69
2022/10/08 00:36:54;;;;;;;15.07;13.68;;;;;;;9.96;100.00;100102.34;10626793;27;20046;-70
2022/10/08 00:41:55;;;;;;;14.15;12.85;;;;;;;10.16;100.00;100095.66;10626286;27;20042;-69
2022/10/08 00:46:57;;;;;;;12.98;11.88;;;;;;;10.03;100.00;100100.41;10606923;27;20111;-70
2022/10/08 00:52:00;;;;;;;14.98;11.13;;;;;;;10.14;100.00;100086.94;10625303;27;20092;-69
2022/10/08 00:57:01;;;;;;;16.55;12.48;;;;;;;10.21;100.00;100078.84;10624977;27;20047;-69
2022/10/08 01:02:07;;;;;;;19.60;12.77;;;;;;;10.41;100.00;100073.03;10625407;27;20506;-69
2022/10/08 01:07:25;;;;;;;13.23;10.73;;;;;;;10.37;100.00;100068.78;10625268;27;20034;-69
2022/10/08 01:12:58;;;;;;;14.48;11.05;;;;;;;10.39;100.00;100060.84;10625588;28;20047;-69
2022/10/08 01:18:23;;;;;;;11.70;10.80;;;;;;;10.29;100.00;100065.53;10618962;28;20120;-69
2022/10/08 01:23:40;;;;;;;12.68;11.27;;;;;;;10.33;100.00;100056.66;10606204;28;20130;-69
2022/10/08 01:29:11;;;;;;;;;;;;;;;10.66;100.00;100065.22;10606856;28;20084;-69
2022/10/08 01:34:38;;;;;;;12.50;11.40;;;;;;;10.45;100.00;100042.28;10609545;27;19959;-69
2022/10/08 01:39:43;;;;;;;18.13;11.93;;;;;;;10.72;100.00;100041.41;10633321;27;20118;-70
2022/10/08 01:44:50;;;;;;;13.73;11.52;;;;;;;10.64;100.00;100034.66;10614997;27;20069;-70
2022/10/08 01:50:14;;;;;;;16.63;13.00;;;;;;;10.92;100.00;100029.34;10632483;27;20031;-70
2022/10/08 01:55:23;;;;;;;13.70;12.40;;;;;;;10.85;100.00;100031.34;10613970;27;20089;-70
2022/10/08 02:00:25;;;;;;;12.85;11.77;;;;;;;10.73;100.00;100018.59;10632346;27;20151;-69
2022/10/08 02:05:31;;;;;;;13.10;11.88;;;;;;;10.91;100.00;100017.97;10631992;27;20085;-70
2022/10/08 02:10:32;;;;;;;12.68;11.40;;;;;;;11.03;100.00;100014.09;10630779;27;20047;-69
2022/10/08 02:15:53;;;;;;;11.60;10.50;;;;;;;10.81;100.00;100000.81;10630645;27;20047;-70
2022/10/08 02:20:58;;;;;;;12.82;11.68;;;;;;;10.95;100.00;99992.44;10632550;27;20063;-70
2022/10/08 02:26:04;;;;;;;12.20;11.13;;;;;;;10.89;100.00;99990.88;10632556;27;20039;-69
2022/10/08 02:31:24;;;;;;;13.57;12.25;;;;;;;11.08;100.00;99994.59;10631101;27;20065;-70
2022/10/08 02:36:33;;;;;;;16.27;12.05;;;;;;;10.79;100.00;99992.94;10631508;27;20434;-69
2022/10/08 02:41:40;;;;;;;12.77;11.55;;;;;;;10.56;100.00;100001.59;10631654;27;20035;-70
2022/10/08 02:46:47;;;;;;;14.10;12.88;;;;;;;11.06;100.00;99996.41;10630755;27;20035;-70
2022/10/08 02:51:52;;;;;;;15.13;13.40;;;;;;;11.08;100.00;99999.84;10630565;27;20122;-70
2022/10/08 02:56:58;;;;;;;13.35;11.50;;;;;;;10.83;100.00;100006.84;10629008;27;20039;-70
2022/10/08 03:02:01;;;;;;;13.73;12.35;;;;;;;10.71;100.00;100000.22;10611727;27;20047;-70
2022/10/08 03:07:05;;;;;;;15.13;13.73;;;;;;;11.08;100.00;100001.63;10629601;27;20035;-69
2022/10/08 03:12:06;;;;;;;16.20;14.80;;;;;;;10.96;100.00;99988.91;10629306;27;20092;-69
2022/10/08 03:17:12;;;;;;;15.93;14.63;;;;;;;11.08;100.00;99999.00;10629269;27;20485;-69
2022/10/08 03:22:13;;;;;;;17.73;14.50;;;;;;;11.17;100.00;99997.84;10629989;27;20081;-69
2022/10/08 03:27:15;;;;;;;14.52;13.35;;;;;;;10.89;100.00;100005.78;10610307;27;20047;-69
2022/10/08 03:32:17;;;;;;;15.45;13.98;;;;;;;10.77;100.00;100000.03;10629078;27;20074;-69
2022/10/08 03:37:19;;;;;;;15.20;13.80;;;;;;;10.66;100.00;99994.25;10628491;27;20043;-69
2022/10/08 03:42:21;;;;;;;15.68;14.38;;;;;;;10.75;100.00;99991.31;10609876;27;20059;-69
2022/10/08 03:47:22;;;;;;;15.13;13.70;;;;;;;10.95;100.00;99995.94;10628647;27;20398;-69
2022/10/08 03:52:24;;;;;;;15.48;14.25;;;;;;;11.03;100.00;99995.69;10627759;27;20408;-69
2022/10/08 03:57:26;;;;;;;15.40;14.10;;;;;;;11.05;100.00;99996.47;10627003;27;20488;-69
2022/10/08 04:02:27;;;;;;;15.10;13.93;;;;;;;10.96;100.00;99997.63;10628477;27;20039;-69
2022/10/08 04:07:29;;;;;;;17.83;14.13;;;;;;;11.16;100.00;99998.75;10627431;27;20070;-69
2022/10/08 04:12:30;;;;;;;16.70;15.43;;;;;;;10.96;100.00;99997.63;10627987;27;20146;-69
2022/10/08 04:17:32;;;;;;;16.90;15.32;;;;;;;11.16;100.00;99990.84;10609252;27;20086;-69
2022/10/08 04:22:34;;;;;;;17.65;15.85;;;;;;;11.03;100.00;99995.69;10627642;27;20449;-69
2022/10/08 04:27:35;;;;;;;18.45;16.83;;;;;;;10.93;100.00;99989.84;10608503;27;20477;-69
2022/10/08 04:32:37;;;;;;;18.83;17.10;;;;;;;11.14;100.00;99995.28;10626524;27;20076;-69
2022/10/08 04:37:38;;;;;;;20.42;17.73;;;;;;;11.22;100.00;99990.63;10625538;27;20035;-69
2022/10/08 04:42:40;;;;;;;18.55;16.77;;;;;;;10.94;100.00;99986.31;10625927;27;20053;-70
2022/10/08 04:47:42;;;;;;;16.88;15.38;;;;;;;10.82;100.00;99992.00;10625779;27;20484;-69
2022/10/08 04:52:44;;;;;;;17.92;16.58;;;;;;;10.78;100.00;100001.75;10626175;27;20061;-70
2022/10/08 04:57:46;;;;;;;19.33;17.60;;;;;;;10.83;100.00;100001.59;10625234;27;20035;-69
2022/10/08 05:02:47;;;;;;;19.60;17.88;;;;;;;11.04;100.00;100000.88;10625584;27;20108;-69
2022/10/08 05:07:50;;;;;;;17.52;16.27;;;;;;;11.06;100.00;100001.66;10624390;27;20050;-69
2022/10/08 05:12:51;;;;;;;19.92;17.92;;;;;;;11.15;100.00;99999.63;10624874;27;20473;-69
2022/10/08 05:17:53;;;;;;;18.05;16.75;;;;;;;10.98;100.00;99995.84;10624830;28;20070;-70
2022/10/08 05:22:54;;;;;;;20.25;17.73;;;;;;;10.94;100.00;100004.75;10625095;28;20118;-69
2022/10/08 05:27:56;;;;;;;17.92;16.55;;;;;;;10.88;100.00;100009.31;10624666;28;20040;-69
2022/10/08 05:32:58;;;;;;;17.85;16.35;;;;;;;10.81;100.00;100014.81;10625003;28;20047;-68
2022/10/08 05:37:59;;;;;;;20.23;18.25;;;;;;;10.96;100.00;100016.06;10606252;28;20028;-69
2022/10/08 05:43:01;;;;;;;21.35;18.30;;;;;;;11.05;100.00;100015.75;10625079;28;20043;-69
2022/10/08 05:48:03;;;;;;;19.35;17.65;;;;;;;11.07;100.00;100013.06;10625695;28;20092;-70
2022/10/08 05:53:04;;;;;;;20.40;18.55;;;;;;;11.00;100.00;100029.97;10607704;28;20122;-69
2022/10/08 05:58:09;;;;;;;25.05;21.73;;;;;;;11.20;100.00;100037.16;10625323;28;20046;-69
2022/10/08 06:03:11;;;;;;;23.15;20.95;;;;;;;11.39;100.00;100040.91;10624908;28;20055;-69
2022/10/08 06:08:12;;;;;;;32.65;21.02;;;;;;;11.42;100.00;100051.34;10625278;28;20039;-69
2022/10/08 06:13:14;;;;;;;25.70;23.35;;;;;;;11.35;100.00;100066.47;10625223;28;20039;-69
2022/10/08 06:18:16;;;;;;;26.52;24.05;;;;;;;11.47;100.00;100080.13;10625573;27;20039;-69
2022/10/08 06:23:18;;;;;;;27.17;24.38;;;;;;;11.56;100.00;100078.03;10596857;27;20039;-70
2022/10/08 06:28:20;;;;;;;25.88;23.13;;;;;;;11.67;100.00;100088.16;10631821;27;20104;-70
2022/10/08 06:33:22;;;;;;;26.02;23.58;;;;;;;12.22;100.00;100090.59;10632318;27;20126;-69
2022/10/08 06:38:23;;;;;;;23.05;20.92;;;;;;;12.19;100.00;100094.22;10630929;27;20036;-70
2022/10/08 06:43:25;;;;;;;20.25;18.23;;;;;;;12.68;100.00;100094.97;10612626;27;20047;-70
2022/10/08 06:48:27;;;;;;;18.67;16.75;;;;;;;13.13;100.00;100100.16;10632582;27;20031;-70
2022/10/08 06:53:29;;;;;;;15.45;14.15;;;;;;;13.44;100.00;100103.34;10631277;27;20126;-70
2022/10/08 06:58:34;;;;;;;12.07;10.90;;;;;;;13.61;100.00;100100.84;10631066;27;20124;-70
2022/10/08 07:03:35;;;;;;;7.95;7.35;;;;;;;13.87;98.99;100104.97;10611768;27;20062;-70
2022/10/08 07:08:38;;;;;;;8.18;7.30;;;;;;;13.87;97.25;100107.63;10630648;27;20050;-70
2022/10/08 07:13:40;;;;;;;8.02;7.03;;;;;;;14.03;93.25;100111.31;10611747;27;20047;-69
2022/10/08 07:18:44;;;;;;;8.80;6.80;;;;;;;14.31;89.72;100118.00;10611128;27;20107;-70
2022/10/08 07:23:46;;;;;;;9.15;6.70;;;;;;;14.33;90.74;100109.03;10611456;27;20043;-70
2022/10/08 07:28:52;;;;;;;7.22;5.72;;;;;;;14.62;87.74;100117.47;10609576;27;20049;-70
2022/10/08 07:33:55;;;;;;;6.20;4.57;;;;;;;14.97;81.53;100112.28;10628953;27;20039;-70
2022/10/08 07:39:02;;;;;;;7.68;3.88;;;;;;;14.95;82.11;100116.75;10628605;27;20058;-70
2022/10/08 07:44:05;;;;;;;5.70;3.08;;;;;;;15.34;76.27;100119.25;10611025;27;20047;-71
2022/10/08 07:49:06;;;;;;;7.60;3.65;;;;;;;15.34;74.05;100121.91;10609274;27;20413;-71
2022/10/08 07:54:12;;;;;;;6.28;3.70;;;;;;;15.05;77.58;100134.78;10628614;27;20050;-71
2022/10/08 07:59:14;;;;;;;6.53;3.95;;;;;;;15.41;76.11;100133.91;10592559;27;20141;-71
2022/10/08 08:04:16;;;;;;;8.10;3.63;;;;;;;15.58;73.04;100133.91;10627894;27;20082;-70
2022/10/08 08:09:18;;;;;;;6.63;2.78;;;;;;;15.36;72.98;100133.25;10627166;27;20492;-71
2022/10/08 08:14:20;;;;;;;8.15;3.42;;;;;;;15.53;72.55;100133.25;10626825;27;20076;-71
2022/10/08 08:19:23;;;;;;;7.85;2.97;;;;;;;15.68;71.40;100133.47;10627346;27;20508;-72
2022/10/08 08:24:24;;;;;;;6.45;3.03;;;;;;;15.67;72.07;100134.38;10609090;27;20051;-72
2022/10/08 08:29:26;;;;;;;6.95;3.10;;;;;;;16.15;69.46;100137.13;10609304;27;20039;-72
2022/10/08 08:34:29;;;;;;;6.75;2.97;;;;;;;16.40;67.42;100142.00;10607629;27;20520;-72
2022/10/08 08:39:31;;;;;;;10.52;3.17;;;;;;;16.45;66.29;100138.22;10625842;27;20063;-71
2022/10/08 08:44:45;;;;;;;3.80;2.35;;;;;;;16.18;68.96;100125.53;10626553;27;20067;-71
2022/10/08 08:50:27;;;;;;;6.10;2.58;;;;;;;16.10;67.47;100141.81;10649769;27;20042;-71
2022/10/08 08:55:40;;;;;;;7.55;3.42;;;;;;;16.24;65.41;100146.41;10607104;27;20100;-71
2022/10/08 09:00:50;;;;;;;8.43;2.95;;;;;;;15.90;68.17;100150.00;10626678;27;20047;-71
2022/10/08 09:05:56;;;;;;;7.00;2.72;;;;;;;16.39;66.25;100150.91;10648894;27;20043;-71
2022/10/08 09:11:01;;;;;;;10.73;2.75;;;;;;;16.39;66.70;100152.69;10633211;27;20043;-71
2022/10/08 09:16:03;;;;;;;5.70;2.20;;;;;;;17.10;62.93;100155.00;10625457;28;20490;-71
2022/10/08 09:21:04;;;;;;;13.70;8.13;;;;;;;16.98;62.01;100158.34;10622801;27;20074;-71
2022/10/08 09:26:06;;;;;;;7.30;4.22;;;;;;;16.82;63.28;100167.16;10623488;28;20039;-71
2022/10/08 09:31:40;;;;;;;6.57;3.08;;;;;;;16.49;64.72;100166.31;10605970;28;20412;-72
2022/10/08 09:37:00;;;;;;;7.97;2.75;;;;;;;16.67;63.75;100164.47;10605812;28;20051;-72
2022/10/08 09:42:05;;;;;;;7.15;3.28;;;;;;;16.73;63.77;100156.19;10606656;28;20556;-71
2022/10/08 09:47:10;;;;;;;7.18;2.35;;;;;;;17.02;64.92;100167.84;10624522;28;20035;-72
2022/10/08 09:52:25;;;;;;;7.85;3.55;;;;;;;17.09;62.30;100169.22;10624114;27;20504;-71
2022/10/08 09:57:29;;;;;;;6.13;3.22;;;;;;;16.92;62.35;100174.63;10596819;27;20047;-72
2022/10/08 10:02:34;;;;;;;3.50;2.40;;;;;;;16.86;64.29;100181.09;10613758;27;20088;-72
2022/10/08 10:07:42;;;;;;;4.97;2.45;;;;;;;17.07;63.05;100179.91;10632340;27;20067;-72
2022/10/08 10:12:49;;;;;;;4.45;2.40;;;;;;;16.81;64.30;100185.81;10632424;27;20039;-73
2022/10/08 10:17:58;;;;;;;6.28;2.85;;;;;;;16.80;64.06;100192.06;10632746;27;20088;-74
2022/10/08 10:23:15;;;;;;;5.35;2.30;;;;;;;16.71;64.11;100197.84;10614610;27;20081;-74
2022/10/08 10:28:25;;;;;;;9.20;2.70;;;;;;;16.43;63.89;100203.81;10615287;27;20066;-74
2022/10/08 10:33:31;;;;;;;3.47;2.47;;;;;;;16.50;63.11;100202.50;10632645;27;20051;-74
2022/10/08 10:38:39;;;;;;;4.60;1.90;;;;;;;16.50;59.90;100200.72;10612842;27;20053;-73
2022/10/08 10:43:53;;;;;;;4.47;1.70;;;;;;;16.87;58.09;100201.44;10631564;27;20053;-74
2022/10/08 10:48:56;;;;;;;5.95;1.92;;;;;;;16.72;57.58;100195.13;10631551;27;20039;-73
2022/10/08 10:54:08;;;;;;;3.92;1.58;;;;;;;16.62;56.55;100197.41;10613266;27;20058;-75
2022/10/08 10:59:30;;;;;;;6.35;1.98;;;;;;;16.63;57.30;100192.97;10631062;27;20047;-74
2022/10/08 11:04:41;;;;;;;6.78;2.03;;;;;;;16.64;56.36;100192.91;10613394;27;20103;-74
2022/10/08 11:10:04;;;;;;;4.63;1.60;;;;;;;16.88;55.43;100189.84;10595351;27;20051;-73
2022/10/08 11:15:06;;;;;;;4.57;1.30;;;;;;;17.26;54.64;100192.16;10613772;27;20088;-73
2022/10/08 11:20:48;;;;;;;6.78;1.33;;;;;;;17.43;54.74;100189.38;10630653;27;20068;-73
2022/10/08 11:26:24;;;;;;;5.28;1.70;;;;;;;17.34;52.17;100180.13;10613790;27;20475;-73
2022/10/08 11:31:56;;;;;;;3.10;1.20;;;;;;;17.14;53.66;100181.28;10629428;27;20092;-73
2022/10/08 11:37:11;;;;;;;4.90;1.65;;;;;;;17.03;53.50;100182.81;10499361;28;20295;-73
2022/10/08 11:42:30;;;;;;;4.45;1.27;;;;;;;16.86;51.46;100189.91;10482016;28;20059;-74
2022/10/08 11:47:40;;;;;;;2.40;0.77;;;;;;;16.74;50.52;100181.81;10482046;28;20057;-73
2022/10/08 11:52:45;;;;;;;3.08;0.98;;;;;;;16.59;50.00;100175.47;10500217;28;20058;-74
2022/10/08 11:57:56;;;;;;;4.85;1.08;;;;;;;16.61;51.14;100181.59;10481254;28;20045;-73
2022/10/08 12:03:20;;;;;;;3.80;1.30;;;;;;;16.80;51.72;100174.34;10499553;28;20044;-74
2022/10/08 12:08:50;;;;;;;3.22;0.93;;;;;;;16.75;52.07;100178.19;10481337;28;20054;-72
2022/10/08 12:14:10;;;;;;;2.88;0.77;;;;;;;16.73;53.39;100174.75;10611893;27;20055;-75
2022/10/08 12:19:33;;;;;;;3.58;1.08;;;;;;;16.70;53.74;100169.59;10609083;27;20035;-74
2022/10/08 12:24:37;;;;;;;4.18;0.82;;;;;;;16.74;53.10;100169.38;10630070;27;20408;-73
2022/10/08 12:30:06;;;;;;;3.72;0.98;;;;;;;16.90;53.21;100172.88;10612026;27;20470;-73
2022/10/08 12:35:25;;;;;;;3.10;1.00;;;;;;;17.09;53.01;100163.91;10628249;27;20053;-74
2022/10/08 12:40:51;;;;;;;3.70;1.00;;;;;;;17.20;52.85;100165.94;10609402;27;20047;-73
2022/10/08 12:46:00;;;;;;;2.80;0.87;;;;;;;17.31;51.79;100174.13;10626263;27;20129;-73
2022/10/08 12:51:16;;;;;;;4.90;1.00;;;;;;;17.26;51.75;100171.75;10627343;27;20042;-73
2022/10/08 12:56:28;;;;;;;3.03;1.00;;;;;;;16.97;51.34;100161.94;10608942;27;20036;-74
2022/10/08 13:01:30;;;;;;;4.13;0.95;;;;;;;17.11;52.13;100162.88;10607852;27;20043;-73
2022/10/08 13:06:32;;;;;;;5.57;1.17;;;;;;;17.17;53.04;100163.44;10626159;27;20515;-72
2022/10/08 13:11:35;;;;;;;3.25;1.27;;;;;;;17.45;51.88;100168.91;10626730;27;20039;-74
2022/10/08 13:16:46;;;;;;;10.68;1.10;;;;;;;17.71;50.34;100171.81;10626556;27;20035;-73
2022/10/08 13:22:00;;;;;;;3.03;0.88;;;;;;;17.58;51.91;100180.53;10607460;28;20039;-72
2022/10/08 13:27:02;;;;;;;2.30;1.05;;;;;;;17.47;52.72;100180.28;10627087;27;20057;-73
2022/10/08 13:32:10;;;;;;;3.97;0.93;;;;;;;17.44;51.68;100192.91;10633914;27;20496;-73
2022/10/08 13:37:15;;;;;;;2.33;0.90;;;;;;;17.13;52.78;100195.53;10614852;27;20077;-73
2022/10/08 13:42:19;;;;;;;6.07;1.55;;;;;;;16.86;53.79;100194.38;10615445;27;20508;-73
2022/10/08 13:47:22;;;;;;;3.88;1.08;;;;;;;16.75;54.86;100196.78;10615690;27;20052;-74
2022/10/08 13:52:24;;;;;;;2.28;0.90;;;;;;;16.95;53.08;100201.84;10633721;27;20084;-73
2022/10/08 13:57:26;;;;;;;3.15;0.93;;;;;;;16.75;53.67;100197.63;10633229;27;20069;-74
2022/10/08 14:02:27;;;;;;;3.72;0.90;;;;;;;16.64;56.24;100199.97;10633567;27;20100;-76
2022/10/08 14:07:32;;;;;;;3.30;1.20;;;;;;;16.53;58.24;100211.19;10614197;27;20046;-75
2022/10/08 14:12:34;;;;;;;4.43;1.80;;;;;;;15.91;61.48;100225.06;10598803;27;20107;-74
2022/10/08 14:17:36;;;;;;;7.05;2.40;;;;;;;15.80;63.51;100234.41;10631919;27;20076;-73
2022/10/08 14:22:37;;;;;;;6.32;1.58;;;;;;;15.69;63.89;100231.44;10614326;27;20047;-74
2022/10/08 14:27:39;;;;;;;5.43;2.10;;;;;;;15.60;65.62;100231.88;10614370;27;20404;-74
2022/10/08 14:32:41;;;;;;;4.15;1.58;;;;;;;15.35;67.09;100242.78;10613736;27;20412;-74
2022/10/08 14:37:42;;;;;;;6.82;1.77;;;;;;;15.60;66.58;100247.75;10613275;27;20047;-73
2022/10/08 14:42:44;;;;;;;8.65;2.30;;;;;;;15.38;67.85;100248.81;10612476;27;20115;-72
2022/10/08 14:47:46;;;;;;;3.15;1.20;;;;;;;15.39;67.40;100253.16;10630873;27;20551;-73
2022/10/08 14:52:48;;;;;;;5.93;1.90;;;;;;;15.32;65.79;100253.56;10631003;27;20039;-74
2022/10/08 14:57:50;;;;;;;3.75;2.30;;;;;;;15.17;64.78;100262.22;10631514;27;20511;-73
2022/10/08 15:02:51;;;;;;;2.17;1.00;;;;;;;14.93;66.22;100270.38;10612637;27;20051;-73
2022/10/08 15:07:53;;;;;;;2.03;1.13;;;;;;;14.70;61.34;100276.72;10629976;27;20035;-73
2022/10/08 15:12:55;;;;;;;1.98;1.08;;;;;;;14.44;62.81;100284.91;10630434;27;20051;-72
2022/10/08 15:17:56;;;;;;;3.03;2.33;;;;;;;14.34;64.50;100287.06;10629832;27;20043;-75
2022/10/08 15:22:58;;;;;;;7.93;7.30;;;;;;;14.25;66.40;100300.69;10630671;27;20548;-75
2022/10/08 15:27:59;;;;;;;4.40;3.85;;;;;;;14.32;68.46;100307.44;10631399;27;20047;-75
2022/10/08 15:33:03;;;;;;;6.05;2.60;;;;;;;14.04;73.78;100313.91;10611341;27;20051;-73
2022/10/08 15:38:05;;;;;;;4.43;2.15;;;;;;;13.94;77.46;100317.81;10629973;27;20091;-72
2022/10/08 15:43:06;;;;;;;9.65;8.88;;;;;;;13.92;78.73;100313.53;10629258;27;20512;-72
2022/10/08 15:48:12;;;;;;;7.95;7.15;;;;;;;13.67;80.47;100322.44;10610959;27;20050;-73
2022/10/08 15:53:14;;;;;;;26.45;22.33;;;;;;;13.66;81.41;100333.94;10611779;27;20070;-73
2022/10/08 15:58:15;;;;;;;4.43;1.70;;;;;;;13.56;83.96;100351.94;10631996;27;20079;-73
2022/10/08 16:03:40;;;;;;;17.25;12.88;;;;;;;13.65;84.45;100349.88;10609408;27;20073;-72
2022/10/08 16:08:45;;;;;;;3.45;2.47;;;;;;;13.59;85.25;100354.47;10629478;27;20046;-73
2022/10/08 16:13:50;;;;;;;6.88;3.97;;;;;;;13.47;87.68;100354.09;10611642;27;20043;-73
2022/10/08 16:18:58;;;;;;;1.95;1.08;;;;;;;13.52;86.82;100360.03;10629876;27;20066;-73
2022/10/08 16:24:00;;;;;;;7.50;6.85;;;;;;;13.51;86.04;100366.25;10592385;27;20092;-73
2022/10/08 16:29:04;;;;;;;3.13;1.35;;;;;;;13.41;86.32;100368.34;10627489;27;20039;-73
2022/10/08 16:34:14;;;;;;;5.05;4.38;;;;;;;13.31;87.45;100383.69;10628291;27;20046;-73
2022/10/08 16:39:18;;;;;;;4.70;4.30;;;;;;;13.38;86.82;100394.91;10627212;27;20067;-74
2022/10/08 16:44:20;;;;;;;7.18;6.47;;;;;;;13.33;86.91;100392.44;10626447;27;20039;-72
2022/10/08 16:49:27;;;;;;;6.47;4.18;;;;;;;13.09;88.71;100411.75;10626197;27;20078;-73
2022/10/08 16:54:29;;;;;;;3.03;2.58;;;;;;;12.78;90.61;100412.84;10629737;27;20095;-73
2022/10/08 16:59:30;;;;;;;5.80;4.45;;;;;;;12.88;90.46;100429.22;10649667;27;20418;-73
2022/10/08 17:04:37;;;;;;;4.47;2.38;;;;;;;12.67;90.59;100433.47;10642255;27;20078;-74
2022/10/08 17:09:39;;;;;;;4.13;2.20;;;;;;;12.63;91.34;100438.00;10625142;27;20118;-73
2022/10/08 17:14:41;;;;;;;4.88;4.18;;;;;;;12.44;92.19;100447.44;10646270;27;20042;-73
2022/10/08 17:19:43;;;;;;;4.82;2.83;;;;;;;12.28;93.78;100449.69;10667562;27;20035;-72
2022/10/08 17:24:46;;;;;;;4.40;2.20;;;;;;;12.29;93.82;100464.59;10650370;27;20058;-74
2022/10/08 17:29:48;;;;;;;2.95;1.63;;;;;;;12.23;94.01;100470.06;10645563;27;20045;-74
2022/10/08 17:34:50;;;;;;;5.15;2.10;;;;;;;12.16;94.25;100473.78;10606991;28;20503;-74
2022/10/08 17:39:51;;;;;;;4.68;2.53;;;;;;;12.07;94.32;100477.56;10626258;28;20391;-72
2022/10/08 17:44:53;;;;;;;4.70;3.60;;;;;;;11.91;94.54;100494.78;10606616;28;20047;-73
2022/10/08 17:49:54;;;;;;;5.28;2.42;;;;;;;11.88;94.18;100486.09;10624501;28;20039;-72
2022/10/08 17:54:56;;;;;;;4.63;2.10;;;;;;;11.88;94.46;100492.22;10624449;28;20039;-72
2022/10/08 17:59:58;;;;;;;5.60;1.92;;;;;;;11.83;94.37;100496.78;10604577;28;20044;-72
2022/10/08 18:04:59;;;;;;;4.90;1.90;;;;;;;11.90;93.98;100507.97;10636934;27;20050;-72
2022/10/08 18:10:01;;;;;;;3.00;1.88;;;;;;;11.95;92.78;100514.81;10623799;27;20403;-73
2022/10/08 18:15:04;;;;;;;5.13;2.00;;;;;;;11.97;91.01;100520.94;10626051;27;20051;-72
2022/10/08 18:20:06;;;;;;;4.90;2.00;;;;;;;12.14;90.14;100530.97;10632440;27;20043;-71
2022/10/08 18:25:08;;;;;;;4.88;2.28;;;;;;;12.19;89.78;100533.47;10631780;27;20067;-71
2022/10/08 18:30:10;;;;;;;4.40;2.28;;;;;;;12.15;90.33;100537.97;10631382;27;20500;-72
2022/10/08 18:35:12;;;;;;;3.10;2.05;;;;;;;11.89;91.55;100538.72;10631046;27;20047;-72
2022/10/08 18:40:14;;;;;;;4.18;2.20;;;;;;;11.87;91.15;100548.47;10631436;27;20039;-72
2022/10/08 18:45:16;;;;;;;4.97;2.38;;;;;;;12.00;88.66;100565.63;10631238;27;20392;-72
2022/10/08 18:50:18;;;;;;;3.95;1.70;;;;;;;12.06;86.92;100570.72;10612106;27;20089;-71
2022/10/08 18:55:20;;;;;;;3.28;1.88;;;;;;;12.04;85.99;100576.94;10630239;27;20046;-72
2022/10/08 19:00:22;;;;;;;4.93;2.00;;;;;;;11.99;84.56;100582.34;10595336;27;20047;-72
2022/10/08 19:05:23;;;;;;;3.80;1.67;;;;;;;11.92;83.48;100590.47;10611698;27;20049;-71
2022/10/08 19:10:25;;;;;;;4.75;2.38;;;;;;;11.84;83.22;100599.44;10630719;27;20070;-71
2022/10/08 19:15:26;;;;;;;3.05;1.90;;;;;;;11.85;82.22;100600.31;10629745;27;20124;-71
2022/10/08 19:20:28;;;;;;;4.05;1.60;;;;;;;11.66;82.44;100617.50;10630048;27;20043;-72
2022/10/08 19:25:30;;;;;;;4.82;2.42;;;;;;;11.75;79.60;100617.25;10610596;27;20096;-72
2022/10/08 19:30:33;;;;;;;4.80;1.40;;;;;;;11.61;78.84;100629.00;10612034;27;20500;-72
2022/10/08 19:35:35;;;;;;;2.78;1.75;;;;;;;11.56;77.84;100633.53;10610183;27;20056;-72
2022/10/08 19:40:36;;;;;;;2.40;1.50;;;;;;;11.52;77.82;100634.53;10628923;27;20092;-72
2022/10/08 19:45:38;;;;;;;3.75;2.00;;;;;;;11.49;77.94;100641.63;10628351;27;20050;-73
2022/10/08 19:50:41;;;;;;;3.17;1.77;;;;;;;11.05;80.54;100659.38;10593663;27;20039;-73
2022/10/08 19:55:42;;;;;;;3.80;1.92;;;;;;;11.20;79.44;100664.31;10629480;27;20051;-72
2022/10/08 20:00:44;;;;;;;2.13;1.50;;;;;;;11.14;79.12;100668.81;10611554;27;20122;-72
2022/10/08 20:05:46;;;;;;;3.83;1.90;;;;;;;11.10;78.87;100679.41;10609630;27;20077;-72
2022/10/08 20:10:48;;;;;;;2.13;1.33;;;;;;;10.86;79.44;100688.75;10609287;27;20046;-72
2022/10/08 20:15:50;;;;;;;2.10;1.42;;;;;;;10.84;78.99;100693.16;10627006;27;20107;-72
2022/10/08 20:21:03;;;;;;;6.28;4.95;;;;;;;10.78;78.16;100695.94;10627026;27;20039;-71
2022/10/08 20:26:15;;;;;;;3.90;2.58;;;;;;;10.71;78.42;100706.63;10608411;27;20039;-72
2022/10/08 20:31:26;;;;;;;4.72;1.55;;;;;;;10.77;77.66;100704.75;10626928;27;20464;-73
2022/10/08 20:36:28;;;;;;;4.95;1.73;;;;;;;10.75;77.72;100721.44;10606815;27;20047;-73
2022/10/08 20:41:30;;;;;;;2.63;1.27;;;;;;;10.54;78.67;100715.75;10607865;27;20403;-73
2022/10/08 20:46:33;;;;;;;2.53;1.60;;;;;;;10.31;80.27;100728.47;10625410;27;20046;-72
2022/10/08 20:51:37;;;;;;;2.63;1.40;;;;;;;10.51;79.13;100735.97;10606682;27;20046;-72
2022/10/08 20:56:40;;;;;;;2.05;1.58;;;;;;;10.48;79.08;100741.28;10625197;27;20039;-72
2022/10/08 21:01:41;;;;;;;2.10;1.38;;;;;;;10.51;78.78;100741.22;10625799;27;20043;-72
2022/10/08 21:06:45;;;;;;;2.40;1.60;;;;;;;10.39;79.94;100737.06;10625648;27;20070;-73
2022/10/08 21:11:47;;;;;;;1.50;1.40;;;;;;;10.43;79.95;100751.88;10625030;27;20442;-71
2022/10/08 21:16:49;;;;;;;3.38;2.03;;;;;;;10.38;80.45;100751.13;10624416;27;20500;-71
2022/10/08 21:21:51;;;;;;;3.55;1.83;;;;;;;10.17;81.49;100756.75;10625728;28;20047;-71
2022/10/08 21:26:53;;;;;;;3.00;1.85;;;;;;;10.25;82.27;100760.13;10624387;28;20429;-71
2022/10/08 21:31:54;;;;;;;4.28;1.95;;;;;;;10.09;82.86;100756.88;10624176;28;20082;-71
2022/10/08 21:36:56;;;;;;;3.13;1.50;;;;;;;10.21;82.55;100761.91;10623799;28;20086;-71
2022/10/08 21:41:57;;;;;;;2.10;1.67;;;;;;;10.00;83.69;100763.16;10624191;28;20093;-71
2022/10/08 21:46:59;;;;;;;4.03;2.13;;;;;;;10.09;83.22;100764.75;10623850;28;20047;-72
2022/10/08 21:52:00;;;;;;;3.80;2.10;;;;;;;9.94;84.58;100773.78;10631978;27;20190;-71
2022/10/08 21:57:02;;;;;;;4.78;2.30;;;;;;;9.84;85.32;100772.22;10632208;27;20055;-71
2022/10/08 22:02:03;;;;;;;4.28;2.08;;;;;;;9.70;86.09;100775.06;10632994;27;20082;-71
2022/10/08 22:07:05;;;;;;;3.45;1.88;;;;;;;9.75;85.95;100780.25;10631868;27;20039;-71
2022/10/08 22:12:07;;;;;;;2.47;1.90;;;;;;;9.80;85.14;100787.16;10613263;27;20096;-73
2022/10/08 22:17:08;;;;;;;8.73;2.08;;;;;;;9.72;85.53;100782.91;10631692;27;20480;-71
2022/10/08 22:22:10;;;;;;;3.47;1.67;;;;;;;9.72;84.81;100789.03;10631218;27;20047;-71
2022/10/08 22:27:11;;;;;;;4.65;1.70;;;;;;;9.71;84.87;100792.56;10631186;27;20085;-72
2022/10/08 22:32:13;;;;;;;6.05;2.17;;;;;;;9.46;86.19;100799.06;10631127;27;20126;-71
2022/10/08 22:37:14;;;;;;;3.38;1.90;;;;;;;9.54;85.87;100797.19;10630526;27;20207;-72
2022/10/08 22:42:16;;;;;;;3.22;1.55;;;;;;;9.64;84.89;100801.41;10630619;27;20398;-71
2022/10/08 22:47:17;;;;;;;4.65;2.03;;;;;;;9.40;86.29;100807.91;10630005;27;20467;-72
2022/10/08 22:52:19;;;;;;;2.60;1.60;;;;;;;9.54;84.85;100805.06;10630165;27;20035;-73
2022/10/08 22:57:21;;;;;;;2.95;1.90;;;;;;;9.41;84.78;100808.78;10629542;27;20039;-72
2022/10/08 23:02:22;;;;;;;3.00;1.80;;;;;;;9.43;85.12;100820.09;10628845;27;20055;-72
2022/10/08 23:07:24;;;;;;;4.53;2.10;;;;;;;9.29;86.34;100815.03;10629315;27;20467;-72
2022/10/08 23:12:25;;;;;;;3.22;1.80;;;;;;;9.03;87.32;100813.66;10629021;27;20151;-72